RCSS/TSA METAR and TAF weather

Enter ICAO airport designator
Station Type Date Time Source
RCSS METAR 2022/12/10 01:00 UTC NOAA

RCSS 100100Z 06010G20KT 020V090 9999 FEW010 SCT020 BKN032 20/17 Q1014 NOSIG RMK A2996


Station Type Date Time Source
RCSS Decoded METAR 2022/12/10 01:00 UTC NOAA

Sungshan / Taipei, Taiwan (RCSS) 25-04N 121-33E
Dec 09, 2022 - 08:00 PM EST / 2022.12.10 0100 UTC
Wind: from the ENE (060 degrees) at 12 MPH (10 KT) gusting to 23 MPH (20 KT) (direction variable):0
Visibility: greater than 7 mile(s):0
Sky conditions: mostly cloudy
Temperature: 68 F (20 C)
Dew Point: 62 F (17 C)
Relative Humidity: 82%
Pressure (altimeter): 29.94 in. Hg (1014 hPa)
ob: RCSS 100100Z 06010G20KT 020V090 9999 FEW010 SCT020 BKN032 20/17 Q1014 NOSIG RMK A2996
cycle: 1

Station Type Date Time Source
RCSS TAF 2022/12/09 18:03 UTC NOAA

TAF RCSS 091700Z 0918/1018 10012KT 9999 FEW010 BKN032
TEMPO 0918/0924 12005KT FEW008 BKN020
TEMPO 1002/1008 09013G23KT
TEMPO 1008/1014 FEW008 BKN020

Example: see airport list